Time;durP1;ratioP1;P1;durP2;ratioP2;P2;SDS_P1;SDS_P2;PMS_P1;PMS_P2;Temp;Humidity;BMP_temperature;BMP_pressure;BME280_temperature;BME280_humidity;BME280_pressure;Samples;Min_cycle;Max_cycle;Signal;HPM_P1;HPM_P2
2023/07/06 00:02:07;;;;;;;4.65;2.38;;;18.20;1.00;;;;;;7394156;19;20014;-69
2023/07/06 00:04:38;;;;;;;3.83;2.28;;;18.10;1.00;;;;;;7396433;19;20086;-70
2023/07/06 00:07:08;;;;;;;5.43;2.60;;;18.20;1.00;;;;;;7395767;19;20015;-69
2023/07/06 00:09:41;;;;;;;4.35;2.25;;;18.20;1.00;;;;;;7393376;19;20086;-69
2023/07/06 00:12:12;;;;;;;5.32;2.40;;;18.10;1.00;;;;;;7396470;19;20014;-69
2023/07/06 00:14:42;;;;;;;5.03;2.60;;;18.10;1.00;;;;;;7395253;19;20347;-68
2023/07/06 00:17:14;;;;;;;5.00;2.50;;;18.00;1.00;;;;;;7395047;19;20028;-69
2023/07/06 00:19:47;;;;;;;5.05;2.35;;;18.10;1.00;;;;;;7394038;19;20094;-70
2023/07/06 00:22:18;;;;;;;3.72;2.10;;;18.10;1.00;;;;;;7394636;19;20014;-69
2023/07/06 00:24:50;;;;;;;5.43;2.30;;;18.20;1.00;;;;;;7394301;19;20020;-69
2023/07/06 00:27:20;;;;;;;2.55;1.77;;;18.10;1.00;;;;;;7394536;19;20528;-70
2023/07/06 00:30:08;;;;;;;4.55;2.20;;;18.10;1.00;;;;;;7394304;19;20014;-69
2023/07/06 00:32:38;;;;;;;4.90;2.40;;;18.10;1.00;;;;;;7394311;19;20337;-70
2023/07/06 00:35:10;;;;;;;5.35;2.65;;;18.00;1.00;;;;;;7394430;19;20344;-69
2023/07/06 00:37:41;;;;;;;4.32;2.72;;;18.00;1.00;;;;;;7392061;19;20015;-69
2023/07/06 00:40:16;;;;;;;3.63;2.70;;;18.10;1.00;;;;;;7392185;19;20022;-70
2023/07/06 00:42:47;;;;;;;4.75;2.30;;;18.00;1.00;;;;;;7394295;19;20014;-70
2023/07/06 00:45:17;;;;;;;4.35;2.42;;;17.80;1.00;;;;;;7394497;19;20022;-69
2023/07/06 00:47:51;;;;;;;4.38;2.60;;;17.70;1.00;;;;;;7393160;19;20382;-70
2023/07/06 00:50:27;;;;;;;4.93;2.78;;;17.70;1.00;;;;;;7391665;19;20428;-69
2023/07/06 00:53:02;;;;;;;5.93;2.53;;;17.80;1.00;;;;;;7393836;19;20014;-69
2023/07/06 00:55:40;;;;;;;5.90;2.75;;;17.80;1.00;;;;;;7395263;19;20014;-69
2023/07/06 00:58:13;;;;;;;3.80;2.15;;;17.70;1.00;;;;;;7393846;19;20014;-69
2023/07/06 01:00:46;;;;;;;6.10;2.90;;;17.70;1.00;;;;;;7391009;19;20035;-70
2023/07/06 01:03:19;;;;;;;4.32;2.60;;;17.70;1.00;;;;;;7392776;19;20017;-69
2023/07/06 01:05:54;;;;;;;3.17;2.33;;;17.70;1.00;;;;;;7396198;19;20035;-69
2023/07/06 01:08:25;;;;;;;;;;;17.90;1.00;;;;;;7393461;19;20038;-69
2023/07/06 01:11:00;;;;;;;4.15;2.30;;;17.80;1.00;;;;;;7393619;19;19922;-69
2023/07/06 01:13:32;;;;;;;4.28;1.70;;;17.70;1.00;;;;;;7392168;19;20015;-69
2023/07/06 01:16:10;;;;;;;3.67;1.90;;;17.70;1.00;;;;;;7395824;19;20014;-69
2023/07/06 01:18:49;;;;;;;3.00;2.30;;;17.60;1.00;;;;;;7392924;19;20018;-69
2023/07/06 01:21:26;;;;;;;5.03;2.28;;;17.50;1.00;;;;;;7389659;19;20023;-69
2023/07/06 01:24:26;;;;;;;3.72;1.95;;;17.40;1.00;;;;;;7392735;19;20022;-69
2023/07/06 01:27:29;;;;;;;2.67;2.08;;;17.30;1.00;;;;;;7392417;19;20020;-69
2023/07/06 01:30:36;;;;;;;3.60;2.22;;;17.30;1.00;;;;;;7393541;19;20025;-70
2023/07/06 01:33:13;;;;;;;4.00;2.50;;;17.20;1.00;;;;;;7395950;19;20053;-70
2023/07/06 01:35:47;;;;;;;3.33;2.10;;;17.30;1.00;;;;;;7395975;19;20532;-69
2023/07/06 01:38:17;;;;;;;7.07;1.90;;;17.30;1.00;;;;;;7391924;19;20018;-69
2023/07/06 01:40:47;;;;;;;4.63;2.40;;;17.30;1.00;;;;;;7391370;19;20043;-70
2023/07/06 01:43:19;;;;;;;6.07;2.33;;;17.30;1.00;;;;;;7392054;19;20038;-69
2023/07/06 01:45:51;;;;;;;4.40;2.42;;;17.20;1.00;;;;;;7394911;19;20019;-69
2023/07/06 01:48:24;;;;;;;4.75;2.40;;;17.10;1.00;;;;;;7391882;19;20486;-69
2023/07/06 01:51:02;;;;;;;4.25;2.40;;;17.00;1.00;;;;;;7390562;19;20018;-69
2023/07/06 01:53:41;;;;;;;5.00;2.63;;;16.80;1.00;;;;;;7392004;19;20081;-69
2023/07/06 01:56:17;;;;;;;5.72;2.97;;;16.90;1.00;;;;;;7394796;19;20462;-69
2023/07/06 01:59:02;;;;;;;5.10;2.53;;;17.00;1.00;;;;;;7392325;19;20014;-69
2023/07/06 02:01:38;;;;;;;3.88;2.70;;;17.00;1.00;;;;;;7389992;19;20033;-69
2023/07/06 02:04:12;;;;;;;6.30;3.03;;;17.00;1.00;;;;;;7391034;19;20015;-70
2023/07/06 02:06:43;;;;;;;4.93;2.75;;;16.80;1.00;;;;;;7395446;19;20020;-69
2023/07/06 02:09:18;;;;;;;4.78;2.65;;;16.80;1.00;;;;;;7391722;19;20007;-70
2023/07/06 02:11:51;;;;;;;5.82;3.22;;;16.80;1.00;;;;;;7389913;19;20014;-70
2023/07/06 02:14:22;;;;;;;9.13;3.03;;;16.80;1.00;;;;;;7390803;19;20011;-70
2023/07/06 02:16:54;;;;;;;9.55;3.30;;;16.70;1.00;;;;;;7395738;19;20018;-69
2023/07/06 02:19:26;;;;;;;4.97;3.08;;;16.60;1.00;;;;;;7391742;19;20066;-70
2023/07/06 02:21:56;;;;;;;5.57;3.10;;;16.60;1.00;;;;;;7391442;19;20018;-69
2023/07/06 02:24:26;;;;;;;6.72;3.20;;;16.60;1.00;;;;;;7389514;19;20034;-69
2023/07/06 02:26:56;;;;;;;8.80;3.33;;;16.50;1.00;;;;;;7394881;19;20042;-70
2023/07/06 02:29:26;;;;;;;4.97;2.60;;;16.20;1.00;;;;;;7391953;19;20022;-69
2023/07/06 02:31:56;;;;;;;6.47;2.60;;;16.10;1.00;;;;;;7389562;19;20035;-70
2023/07/06 02:34:29;;;;;;;4.68;2.83;;;16.10;1.00;;;;;;7390828;19;20027;-70
2023/07/06 02:36:59;;;;;;;6.68;2.88;;;16.10;1.00;;;;;;7395173;19;20024;-70
2023/07/06 02:39:28;;;;;;;5.78;3.75;;;16.20;1.00;;;;;;7390108;19;20018;-70
2023/07/06 02:41:59;;;;;;;5.32;3.80;;;16.40;1.00;;;;;;7389573;19;20481;-69
2023/07/06 02:44:29;;;;;;;7.88;3.80;;;16.30;1.00;;;;;;7389644;19;20022;-70
2023/07/06 02:46:59;;;;;;;6.20;3.90;;;16.40;1.00;;;;;;7393659;19;20010;-69
2023/07/06 02:49:32;;;;;;;6.93;3.88;;;16.40;1.00;;;;;;7389750;19;20074;-69
2023/07/06 02:52:02;;;;;;;6.50;3.92;;;16.30;1.00;;;;;;7388823;19;20031;-69
2023/07/06 02:54:33;;;;;;;7.03;4.30;;;16.30;1.00;;;;;;7389859;19;20019;-69
2023/07/06 02:57:03;;;;;;;6.90;3.65;;;16.30;1.00;;;;;;7394340;19;20040;-69
2023/07/06 02:59:33;;;;;;;5.13;3.70;;;16.20;1.00;;;;;;7389864;19;20328;-68
2023/07/06 03:02:03;;;;;;;7.60;4.18;;;16.20;1.00;;;;;;7389559;19;20494;-69
2023/07/06 03:04:36;;;;;;;6.47;3.53;;;16.30;1.00;;;;;;7389651;19;20028;-69
2023/07/06 03:07:06;;;;;;;5.35;3.40;;;16.20;1.00;;;;;;7393877;19;20514;-69
2023/07/06 03:09:37;;;;;;;4.57;3.40;;;16.10;1.00;;;;;;7389616;19;20022;-69
2023/07/06 03:12:09;;;;;;;8.13;3.33;;;16.00;1.00;;;;;;7388156;19;20478;-69
2023/07/06 03:14:39;;;;;;;6.40;3.47;;;15.90;1.00;;;;;;7388925;19;20019;-69
2023/07/06 03:17:09;;;;;;;5.47;3.47;;;15.90;1.00;;;;;;7394154;19;20081;-70
2023/07/06 03:19:41;;;;;;;7.00;3.80;;;15.80;1.00;;;;;;7389324;19;20022;-70
2023/07/06 03:22:11;;;;;;;7.07;3.45;;;15.80;1.00;;;;;;7389715;19;20040;-69
2023/07/06 03:24:42;;;;;;;7.97;3.70;;;15.80;1.00;;;;;;7388908;19;20407;-70
2023/07/06 03:27:12;;;;;;;7.30;3.53;;;15.80;1.00;;;;;;7393306;19;20014;-70
2023/07/06 03:29:43;;;;;;;7.70;3.80;;;15.80;1.00;;;;;;7390939;19;20018;-70
2023/07/06 03:32:14;;;;;;;6.78;3.78;;;15.80;1.00;;;;;;7387841;19;20014;-70
2023/07/06 03:34:47;;;;;;;6.20;3.50;;;15.80;1.00;;;;;;7388660;19;20026;-70
2023/07/06 03:37:18;;;;;;;7.07;3.80;;;15.70;1.00;;;;;;7387506;19;20010;-70
2023/07/06 03:39:48;;;;;;;5.40;3.47;;;15.70;1.00;;;;;;7387621;19;20017;-70
2023/07/06 03:42:18;;;;;;;5.95;3.83;;;15.80;1.00;;;;;;7389001;19;20028;-70
2023/07/06 03:44:48;;;;;;;5.90;3.33;;;15.90;1.00;;;;;;7391298;19;20018;-70
2023/07/06 03:47:18;;;;;;;4.80;3.22;;;15.80;1.00;;;;;;7395157;19;20020;-70
2023/07/06 03:49:51;;;;;;;6.57;3.15;;;16.00;1.00;;;;;;7389834;19;20019;-70
2023/07/06 03:52:22;;;;;;;4.80;2.83;;;15.80;1.00;;;;;;7387303;19;20011;-69
2023/07/06 03:54:52;;;;;;;3.75;2.85;;;15.70;1.00;;;;;;7388315;19;20042;-69
2023/07/06 03:57:23;;;;;;;4.63;3.15;;;16.00;1.00;;;;;;7386601;19;20025;-69
2023/07/06 03:59:53;;;;;;;6.32;3.28;;;16.40;1.00;;;;;;7388074;19;20018;-69
2023/07/06 04:02:23;;;;;;;6.18;3.13;;;16.60;1.00;;;;;;7388456;19;20009;-69
2023/07/06 04:04:56;;;;;;;6.45;3.20;;;16.00;1.00;;;;;;7387716;19;20017;-69
2023/07/06 04:07:26;;;;;;;6.68;3.25;;;17.00;1.00;;;;;;7387340;19;20024;-70
2023/07/06 04:09:56;;;;;;;5.50;2.85;;;17.30;1.00;;;;;;7387176;19;20019;-69
2023/07/06 04:12:26;;;;;;;6.03;3.00;;;17.70;1.00;;;;;;7386797;19;20028;-69
2023/07/06 04:14:56;;;;;;;7.28;3.30;;;18.10;1.00;;;;;;7387520;19;20039;-69
2023/07/06 04:17:26;;;;;;;3.38;2.65;;;18.20;1.00;;;;;;7391742;19;20042;-69
2023/07/06 04:19:58;;;;;;;5.90;3.00;;;18.50;1.00;;;;;;7387129;19;20010;-69
2023/07/06 04:22:28;;;;;;;6.05;3.25;;;18.60;1.00;;;;;;7387976;19;20018;-70
2023/07/06 04:24:58;;;;;;;5.47;3.40;;;18.80;1.00;;;;;;7387379;19;20070;-70
2023/07/06 04:27:28;;;;;;;6.57;3.30;;;19.20;1.00;;;;;;7391885;19;20018;-70
2023/07/06 04:29:58;;;;;;;4.95;2.83;;;19.70;1.00;;;;;;7388876;19;20011;-69
2023/07/06 04:32:31;;;;;;;6.03;3.20;;;19.70;1.00;;;;;;7385920;19;20478;-70
2023/07/06 04:35:04;;;;;;;5.35;3.22;;;20.20;1.00;;;;;;7386963;19;20030;-70
2023/07/06 04:37:34;;;;;;;7.15;3.78;;;20.20;1.00;;;;;;7387292;19;20011;-70
2023/07/06 04:40:11;;;;;;;5.85;3.40;;;20.50;1.00;;;;;;7386202;19;20014;-69
2023/07/06 04:42:41;;;;;;;5.70;3.35;;;21.00;1.00;;;;;;7387792;19;20085;-69
2023/07/06 04:45:12;;;;;;;3.90;3.03;;;21.60;1.00;;;;;;7387369;19;20096;-69
2023/07/06 04:47:44;;;;;;;7.07;3.50;;;23.10;1.00;;;;;;7391301;19;20011;-69
2023/07/06 04:50:22;;;;;;;6.25;3.67;;;21.80;1.00;;;;;;7392696;19;20027;-70
2023/07/06 04:52:55;;;;;;;7.97;3.20;;;21.50;1.00;;;;;;7392333;19;20015;-70
2023/07/06 04:55:27;;;;;;;6.28;3.60;;;22.10;1.00;;;;;;7393597;19;20046;-69
2023/07/06 04:57:59;;;;;;;5.95;3.15;;;21.30;1.00;;;;;;7394386;19;20014;-69
2023/07/06 05:00:33;;;;;;;5.32;3.17;;;22.70;1.00;;;;;;7392080;19;20011;-69
2023/07/06 05:03:06;;;;;;;;;;;23.00;1.00;;;;;;7394775;19;20042;-70
2023/07/06 05:05:42;;;;;;;6.95;3.30;;;22.80;1.00;;;;;;7393718;19;19930;-68
2023/07/06 05:08:15;;;;;;;6.22;3.05;;;22.90;1.00;;;;;;7393615;19;20038;-69
2023/07/06 05:10:46;;;;;;;8.45;3.50;;;23.40;1.00;;;;;;7391738;19;20020;-69
2023/07/06 05:13:17;;;;;;;7.50;3.22;;;24.40;1.00;;;;;;7391804;19;20019;-69
2023/07/06 05:15:48;;;;;;;4.93;3.10;;;23.10;1.00;;;;;;7394242;19;20410;-69
2023/07/06 05:18:19;;;;;;;4.90;3.55;;;23.80;1.00;;;;;;7391823;19;20011;-69
2023/07/06 05:20:57;;;;;;;6.20;3.30;;;23.10;1.00;;;;;;7391334;19;20018;-69
2023/07/06 05:23:29;;;;;;;7.30;3.65;;;23.20;1.00;;;;;;7392153;19;20011;-69
2023/07/06 05:26:02;;;;;;;7.50;3.08;;;22.60;1.00;;;;;;7393946;19;20011;-69
2023/07/06 05:28:33;;;;;;;5.03;2.70;;;22.50;1.00;;;;;;7392078;19;20371;-69
2023/07/06 05:31:05;;;;;;;4.75;2.78;;;23.00;1.00;;;;;;7394693;19;20090;-69
2023/07/06 05:33:35;;;;;;;6.50;2.40;;;23.00;1.00;;;;;;7389195;19;20021;-70
2023/07/06 05:36:08;;;;;;;8.52;2.95;;;23.10;1.00;;;;;;7392271;19;20014;-69
2023/07/06 05:38:38;;;;;;;4.53;2.85;;;23.60;1.00;;;;;;7391102;19;20013;-69
2023/07/06 05:41:08;;;;;;;4.40;2.53;;;22.40;1.00;;;;;;7388343;19;20018;-70
2023/07/06 05:43:38;;;;;;;3.58;2.40;;;22.90;1.00;;;;;;7389361;19;20014;-69
2023/07/06 05:46:08;;;;;;;9.65;2.50;;;23.50;1.00;;;;;;7393250;19;20010;-69
2023/07/06 05:48:37;;;;;;;6.85;3.05;;;23.80;1.00;;;;;;7391289;19;20479;-69
2023/07/06 05:51:10;;;;;;;4.53;2.50;;;24.60;1.00;;;;;;7389996;19;20039;-71
2023/07/06 05:53:40;;;;;;;5.70;2.47;;;23.60;1.00;;;;;;7389503;19;20524;-69
2023/07/06 05:56:10;;;;;;;6.90;2.90;;;22.40;1.00;;;;;;7392695;19;20087;-71
2023/07/06 05:58:40;;;;;;;5.57;2.50;;;22.90;1.00;;;;;;7389723;19;20027;-69
2023/07/06 06:01:10;;;;;;;4.82;2.53;;;22.90;1.00;;;;;;7388877;19;20018;-70
2023/07/06 06:03:40;;;;;;;5.15;2.97;;;23.00;1.00;;;;;;7391295;19;20018;-70
2023/07/06 06:06:13;;;;;;;4.93;2.58;;;22.70;1.00;;;;;;7391810;19;20017;-70
2023/07/06 06:08:43;;;;;;;5.20;2.72;;;21.80;1.00;;;;;;7391469;19;20365;-69
2023/07/06 06:11:15;;;;;;;3.50;2.42;;;22.90;1.00;;;;;;7389180;19;20410;-70
2023/07/06 06:13:45;;;;;;;3.90;1.95;;;21.90;1.00;;;;;;7388590;19;20037;-70
2023/07/06 06:16:16;;;;;;;4.43;2.15;;;20.70;1.00;;;;;;7392830;19;20088;-70
2023/07/06 06:18:46;;;;;;;5.05;2.25;;;20.40;1.00;;;;;;7390498;19;20010;-69
2023/07/06 06:21:18;;;;;;;4.25;2.45;;;20.60;1.00;;;;;;7387923;19;20018;-70
2023/07/06 06:23:48;;;;;;;4.97;2.47;;;20.40;1.00;;;;;;7390730;19;20029;-69
2023/07/06 06:26:18;;;;;;;4.63;2.15;;;20.00;1.00;;;;;;7390852;19;20018;-70
2023/07/06 06:28:49;;;;;;;5.65;2.60;;;19.80;1.00;;;;;;7390123;19;20014;-69
2023/07/06 06:31:19;;;;;;;4.97;2.10;;;20.40;1.00;;;;;;7387947;19;20371;-69
2023/07/06 06:33:49;;;;;;;5.50;2.60;;;20.50;1.00;;;;;;7387806;19;20486;-69
2023/07/06 06:36:22;;;;;;;4.18;2.10;;;19.40;1.00;;;;;;7391253;19;20031;-70
2023/07/06 06:38:52;;;;;;;3.50;1.90;;;21.00;1.00;;;;;;7389501;19;20021;-70
2023/07/06 06:41:22;;;;;;;4.82;2.45;;;22.50;1.00;;;;;;7386795;19;20700;-71
2023/07/06 06:43:52;;;;;;;4.43;2.30;;;22.60;1.00;;;;;;7387939;19;20044;-69
2023/07/06 06:46:23;;;;;;;8.45;2.20;;;22.10;1.00;;;;;;7393817;19;20014;-70
2023/07/06 06:48:53;;;;;;;6.93;2.20;;;21.70;1.00;;;;;;7390123;19;20085;-70
2023/07/06 06:51:26;;;;;;;4.72;2.00;;;21.50;1.00;;;;;;7387460;19;20537;-70
2023/07/06 06:53:56;;;;;;;2.38;1.85;;;20.70;1.00;;;;;;7387155;19;20010;-70
2023/07/06 06:56:26;;;;;;;5.35;2.13;;;20.00;1.00;;;;;;7390431;19;20110;-71
2023/07/06 06:58:56;;;;;;;4.40;2.08;;;20.50;1.00;;;;;;7389716;19;20019;-70
2023/07/06 07:01:26;;;;;;;4.35;1.88;;;20.90;1.00;;;;;;7387288;19;20494;-70
2023/07/06 07:03:59;;;;;;;4.88;2.25;;;21.00;1.00;;;;;;7388761;19;20510;-70
2023/07/06 07:06:32;;;;;;;3.25;1.90;;;20.80;1.00;;;;;;7390232;19;20394;-69
2023/07/06 07:09:02;;;;;;;3.53;2.00;;;20.20;1.00;;;;;;7388942;19;20034;-69
2023/07/06 07:11:32;;;;;;;5.07;2.00;;;20.30;1.00;;;;;;7387415;19;20014;-70
2023/07/06 07:14:02;;;;;;;5.43;1.88;;;20.50;1.00;;;;;;7387901;19;20018;-71
2023/07/06 07:16:34;;;;;;;4.80;1.80;;;20.70;1.00;;;;;;7390327;19;20130;-70
2023/07/06 07:19:08;;;;;;;4.13;2.08;;;20.80;1.00;;;;;;7388625;19;20018;-70
2023/07/06 07:21:41;;;;;;;8.63;2.33;;;21.10;1.00;;;;;;7385379;19;20530;-70
2023/07/06 07:24:11;;;;;;;3.13;1.52;;;21.20;1.00;;;;;;7388451;19;20038;-71
2023/07/06 07:26:43;;;;;;;7.45;2.17;;;21.00;1.00;;;;;;7389835;19;20023;-70
2023/07/06 07:29:13;;;;;;;3.22;1.70;;;21.00;1.00;;;;;;7389285;19;20565;-70
2023/07/06 07:31:44;;;;;;;4.65;1.70;;;20.90;1.00;;;;;;7387719;19;20028;-70
2023/07/06 07:34:14;;;;;;;2.65;1.52;;;21.30;1.00;;;;;;7387866;19;20010;-69
2023/07/06 07:36:47;;;;;;;3.65;1.70;;;21.60;1.00;;;;;;7390257;19;20021;-70
2023/07/06 07:39:17;;;;;;;3.22;1.65;;;21.60;1.00;;;;;;7388376;19;20010;-70
2023/07/06 07:41:47;;;;;;;5.75;1.92;;;21.10;1.00;;;;;;7386996;19;20015;-71
2023/07/06 07:44:17;;;;;;;6.72;2.13;;;21.50;1.00;;;;;;7386775;19;20081;-70
2023/07/06 07:46:47;;;;;;;4.95;1.90;;;21.60;1.00;;;;;;7390025;19;20382;-70
2023/07/06 07:49:17;;;;;;;2.97;1.80;;;21.50;1.00;;;;;;7387669;19;20443;-70
2023/07/06 07:51:50;;;;;;;5.78;1.80;;;21.30;1.00;;;;;;7385836;19;20042;-70
2023/07/06 07:54:21;;;;;;;4.45;2.03;;;21.60;1.00;;;;;;7386228;19;20018;-69
2023/07/06 07:56:53;;;;;;;3.40;2.10;;;21.30;1.00;;;;;;7388313;19;20022;-69
2023/07/06 07:59:25;;;;;;;4.20;1.83;;;21.40;1.00;;;;;;7387056;19;20015;-69
2023/07/06 08:01:56;;;;;;;8.02;1.83;;;21.40;1.00;;;;;;7387602;19;20014;-70
2023/07/06 08:04:26;;;;;;;3.53;2.10;;;21.40;1.00;;;;;;7386639;19;20015;-71
2023/07/06 08:06:59;;;;;;;3.45;1.90;;;21.50;1.00;;;;;;7387726;19;20014;-70
2023/07/06 08:09:29;;;;;;;3.92;2.22;;;21.90;1.00;;;;;;7389066;19;20039;-68
2023/07/06 08:11:59;;;;;;;4.15;1.75;;;22.20;1.00;;;;;;7391011;19;20101;-69
2023/07/06 08:14:37;;;;;;;4.75;1.98;;;22.40;1.00;;;;;;7388451;19;20006;-68
2023/07/06 08:17:10;;;;;;;8.05;2.40;;;22.80;1.00;;;;;;7389740;19;20022;-69
2023/07/06 08:19:40;;;;;;;5.18;2.00;;;23.10;1.00;;;;;;7390451;19;20062;-69
2023/07/06 08:22:33;;;;;;;5.45;2.70;;;22.90;1.00;;;;;;7391123;19;20371;-69
2023/07/06 08:25:07;;;;;;;5.90;1.77;;;23.10;1.00;;;;;;7394388;19;20107;-69
2023/07/06 08:27:39;;;;;;;14.55;2.63;;;23.00;1.00;;;;;;7397382;19;20011;-69
2023/07/06 08:30:10;;;;;;;5.60;1.88;;;23.10;1.00;;;;;;7396017;19;20022;-69
2023/07/06 08:32:40;;;;;;;3.97;2.13;;;23.00;1.00;;;;;;7392447;19;20031;-70
2023/07/06 08:35:12;;;;;;;6.90;2.13;;;23.40;1.00;;;;;;7392119;19;20015;-72
2023/07/06 08:37:45;;;;;;;3.45;1.80;;;23.10;1.00;;;;;;7396866;19;20022;-70
2023/07/06 08:40:18;;;;;;;4.93;2.50;;;22.80;1.00;;;;;;7392828;19;20039;-70
2023/07/06 08:42:49;;;;;;;3.88;2.10;;;22.80;1.00;;;;;;7392289;19;20350;-70
2023/07/06 08:45:22;;;;;;;6.43;1.70;;;22.90;1.00;;;;;;7394824;19;20505;-69
2023/07/06 08:47:56;;;;;;;2.58;1.70;;;22.90;1.00;;;;;;7396564;19;20010;-69
2023/07/06 08:50:32;;;;;;;3.55;2.03;;;23.20;1.00;;;;;;7392359;19;20042;-69
2023/07/06 08:53:09;;;;;;;5.80;1.92;;;22.80;1.00;;;;;;7392881;19;20021;-69
2023/07/06 08:55:39;;;;;;;4.13;1.83;;;23.00;1.00;;;;;;7391256;19;20026;-71
2023/07/06 08:58:12;;;;;;;6.63;2.00;;;22.90;1.00;;;;;;7396823;19;20085;-69
2023/07/06 09:00:42;;;;;;;4.97;1.95;;;23.30;1.00;;;;;;7394315;19;20018;-69
2023/07/06 09:03:13;;;;;;;5.55;1.90;;;22.50;1.00;;;;;;7396074;19;20010;-69
2023/07/06 09:05:47;;;;;;;5.20;1.73;;;22.80;1.00;;;;;;7393873;19;20046;-69
2023/07/06 09:08:23;;;;;;;3.53;1.95;;;22.50;1.00;;;;;;7396562;19;20015;-69
2023/07/06 09:10:53;;;;;;;7.25;2.67;;;21.20;1.00;;;;;;7392243;19;20016;-69
2023/07/06 09:13:30;;;;;;;6.85;2.10;;;21.90;1.00;;;;;;7393723;19;20086;-69
2023/07/06 09:16:04;;;;;;;5.55;2.03;;;21.80;1.00;;;;;;7391153;19;20799;-69
2023/07/06 09:18:34;;;;;;;4.38;1.50;;;21.80;1.00;;;;;;7392756;19;20276;-69
2023/07/06 09:21:05;;;;;;;4.10;1.80;;;21.70;1.00;;;;;;7394701;19;20419;-69
2023/07/06 09:23:38;;;;;;;4.72;1.60;;;22.40;1.00;;;;;;7396607;19;20038;-69
2023/07/06 09:26:10;;;;;;;4.65;1.77;;;23.00;1.00;;;;;;7390562;19;20474;-70
2023/07/06 09:29:17;;;;;;;4.32;1.85;;;23.30;1.00;;;;;;7396324;19;20041;-70
2023/07/06 09:31:48;;;;;;;5.82;1.88;;;23.50;1.00;;;;;;7392525;19;20011;-69
2023/07/06 09:34:30;;;;;;;3.58;1.90;;;23.70;1.00;;;;;;7388254;19;20014;-69
2023/07/06 09:37:01;;;;;;;4.70;2.17;;;23.10;1.00;;;;;;7396304;19;20019;-68
2023/07/06 09:39:35;;;;;;;3.25;1.70;;;22.20;1.00;;;;;;7391307;19;20014;-69
2023/07/06 09:42:05;;;;;;;3.55;1.52;;;22.80;1.00;;;;;;7392125;19;20031;-69
2023/07/06 09:44:35;;;;;;;3.75;1.95;;;22.90;1.00;;;;;;7391924;19;20018;-69
2023/07/06 09:47:11;;;;;;;3.47;2.08;;;23.30;1.00;;;;;;7392828;19;20019;-70
2023/07/06 09:49:52;;;;;;;3.28;1.75;;;23.50;1.00;;;;;;7389349;19;20042;-69
2023/07/06 09:52:23;;;;;;;7.20;2.50;;;23.80;1.00;;;;;;7391350;19;20036;-68
2023/07/06 09:55:02;;;;;;;4.15;1.63;;;23.60;1.00;;;;;;7390890;19;20015;-68
2023/07/06 09:57:36;;;;;;;5.18;1.83;;;23.10;1.00;;;;;;7392605;19;20518;-69
2023/07/06 10:00:15;;;;;;;4.93;1.83;;;23.20;1.00;;;;;;7390001;19;20151;-69
2023/07/06 10:02:59;;;;;;;2.75;1.80;;;23.50;1.00;;;;;;7391163;19;20010;-70
2023/07/06 10:05:34;;;;;;;;;;;23.50;1.00;;;;;;7391639;19;20104;-69
2023/07/06 10:08:11;;;;;;;;;;;24.00;1.00;;;;;;7393750;19;19922;-70
2023/07/06 10:10:58;;;;;;;4.18;1.75;;;23.50;1.00;;;;;;7389731;19;19907;-69
2023/07/06 10:13:38;;;;;;;3.38;1.80;;;23.60;1.00;;;;;;7390508;19;20027;-70
2023/07/06 10:16:21;;;;;;;5.55;1.77;;;23.60;1.00;;;;;;7389217;19;20382;-70
2023/07/06 10:18:55;;;;;;;3.93;1.77;;;23.30;1.00;;;;;;7390108;19;20007;-70
2023/07/06 10:21:29;;;;;;;3.08;1.58;;;23.50;1.00;;;;;;7388618;19;20081;-69
2023/07/06 10:24:07;;;;;;;3.28;1.85;;;23.80;1.00;;;;;;7390395;19;20078;-68
2023/07/06 10:26:47;;;;;;;5.22;2.08;;;23.40;1.00;;;;;;7390976;19;20022;-69
2023/07/06 10:29:21;;;;;;;6.82;1.77;;;23.70;1.00;;;;;;7388954;19;20545;-69
2023/07/06 10:31:57;;;;;;;2.92;1.70;;;23.50;1.00;;;;;;7390720;19;20028;-68
2023/07/06 10:34:34;;;;;;;2.28;1.75;;;23.40;1.00;;;;;;7388854;19;20760;-69
2023/07/06 10:37:06;;;;;;;3.58;1.67;;;24.10;1.00;;;;;;7389271;19;20473;-70
2023/07/06 10:40:04;;;;;;;3.92;2.15;;;24.40;1.00;;;;;;7388892;19;20774;-70
2023/07/06 10:42:36;;;;;;;5.07;1.80;;;25.10;1.00;;;;;;7390295;19;20010;-70
2023/07/06 10:45:24;;;;;;;3.42;1.83;;;25.10;1.00;;;;;;7389817;19;20470;-69
2023/07/06 10:47:54;;;;;;;2.90;1.85;;;24.10;1.00;;;;;;7391999;19;20069;-69
2023/07/06 10:50:30;;;;;;;5.20;1.90;;;24.50;1.00;;;;;;7388316;19;20014;-70
2023/07/06 10:53:17;;;;;;;4.90;1.70;;;24.30;1.00;;;;;;7389016;19;20011;-70
2023/07/06 10:55:58;;;;;;;3.53;1.73;;;24.10;1.00;;;;;;7387170;19;20011;-70
2023/07/06 10:58:33;;;;;;;3.33;1.80;;;23.60;1.00;;;;;;7392477;19;20014;-70
2023/07/06 11:01:10;;;;;;;3.53;1.92;;;24.20;1.00;;;;;;7387186;19;20368;-69
2023/07/06 11:03:41;;;;;;;5.53;2.13;;;24.00;1.00;;;;;;7388883;19;20025;-70
2023/07/06 11:06:16;;;;;;;5.10;1.77;;;24.20;1.00;;;;;;7388471;19;20298;-69
2023/07/06 11:09:13;;;;;;;6.13;1.95;;;24.70;1.00;;;;;;7391064;19;20320;-70
2023/07/06 11:12:04;;;;;;;4.18;1.85;;;23.90;1.00;;;;;;7387767;19;20384;-68
2023/07/06 11:14:44;;;;;;;5.00;1.75;;;24.20;1.00;;;;;;7387528;19;20018;-69
2023/07/06 11:17:30;;;;;;;2.70;1.67;;;23.60;1.00;;;;;;7386333;19;20533;-69
2023/07/06 11:20:07;;;;;;;5.30;2.08;;;24.20;1.00;;;;;;7386590;19;20170;-69
2023/07/06 11:22:39;;;;;;;3.95;1.55;;;23.70;1.00;;;;;;7388445;19;20022;-69
2023/07/06 11:25:14;;;;;;;3.05;1.73;;;23.20;1.00;;;;;;7390237;19;20382;-68
2023/07/06 11:27:48;;;;;;;4.57;2.00;;;23.80;1.00;;;;;;7391646;19;20011;-70
2023/07/06 11:30:31;;;;;;;3.47;1.85;;;23.90;1.00;;;;;;7390221;19;20022;-69
2023/07/06 11:33:16;;;;;;;4.47;1.85;;;24.10;1.00;;;;;;7390955;19;20026;-70
2023/07/06 11:35:58;;;;;;;3.53;1.80;;;24.80;1.00;;;;;;7390978;19;20093;-69
2023/07/06 11:38:47;;;;;;;4.72;2.00;;;24.80;1.00;;;;;;7391248;19;20038;-71
2023/07/06 11:41:31;;;;;;;4.82;2.33;;;24.40;1.00;;;;;;7390276;19;20027;-71
2023/07/06 11:44:18;;;;;;;2.67;1.87;;;24.20;1.00;;;;;;7389621;19;20019;-70
2023/07/06 11:47:02;;;;;;;4.18;2.08;;;24.20;1.00;;;;;;7390624;19;20087;-70
2023/07/06 11:49:44;;;;;;;3.22;1.85;;;24.40;1.00;;;;;;7385985;19;20082;-69
2023/07/06 11:52:19;;;;;;;6.07;2.00;;;24.30;1.00;;;;;;7388927;19;20019;-70
2023/07/06 11:54:54;;;;;;;2.38;1.65;;;24.10;1.00;;;;;;7388508;19;20035;-70
2023/07/06 11:57:28;;;;;;;5.70;1.73;;;24.20;1.00;;;;;;7387718;19;20015;-70
2023/07/06 12:00:18;;;;;;;6.72;2.17;;;24.20;1.00;;;;;;7388288;19;20014;-70
2023/07/06 12:03:00;;;;;;;4.32;2.08;;;24.10;1.00;;;;;;7389311;19;20022;-70
2023/07/06 12:05:33;;;;;;;4.07;1.90;;;24.10;1.00;;;;;;7390365;19;20501;-70
2023/07/06 12:08:05;;;;;;;3.55;2.10;;;24.50;1.00;;;;;;7390029;19;20007;-71
2023/07/06 12:10:38;;;;;;;3.30;1.85;;;24.10;1.00;;;;;;7388678;19;20010;-69
2023/07/06 12:13:15;;;;;;;4.45;1.73;;;24.40;1.00;;;;;;7388817;19;20761;-69
2023/07/06 12:15:47;;;;;;;3.88;1.80;;;24.20;1.00;;;;;;7391103;19;20059;-69
2023/07/06 12:18:20;;;;;;;3.10;1.70;;;23.80;1.00;;;;;;7388643;19;20078;-71
2023/07/06 12:20:54;;;;;;;6.05;1.77;;;24.20;1.00;;;;;;7385111;19;20014;-70
2023/07/06 12:23:26;;;;;;;2.85;1.70;;;24.40;1.00;;;;;;7385414;19;20018;-71
2023/07/06 12:25:57;;;;;;;3.88;1.77;;;24.20;1.00;;;;;;7386547;19;20038;-69
2023/07/06 12:28:29;;;;;;;3.60;2.00;;;24.60;1.00;;;;;;7388225;19;20011;-69
2023/07/06 12:31:03;;;;;;;2.42;1.70;;;24.40;1.00;;;;;;7388084;19;20021;-69
2023/07/06 12:33:37;;;;;;;;;;;25.20;1.00;;;;;;7389507;19;20353;-70
2023/07/06 12:36:08;;;;;;;5.57;2.00;;;24.40;1.00;;;;;;7389939;19;19976;-70
2023/07/06 12:38:38;;;;;;;4.13;1.75;;;24.90;1.00;;;;;;7390264;19;20018;-71
2023/07/06 12:41:20;;;;;;;3.55;1.70;;;26.10;1.00;;;;;;7388799;19;20010;-70
2023/07/06 12:43:53;;;;;;;3.92;1.73;;;26.30;1.00;;;;;;7385647;19;20030;-71
2023/07/06 12:46:23;;;;;;;3.22;2.10;;;26.20;1.00;;;;;;7389797;19;20462;-71
2023/07/06 12:48:59;;;;;;;3.75;1.70;;;25.10;1.00;;;;;;7388842;19;20027;-70
2023/07/06 12:51:30;;;;;;;3.00;1.77;;;24.60;1.00;;;;;;7379225;19;20032;-71
2023/07/06 12:54:00;;;;;;;4.10;2.03;;;24.30;1.00;;;;;;7384528;19;20018;-70
2023/07/06 12:56:31;;;;;;;5.38;2.10;;;25.50;1.00;;;;;;7381583;19;20415;-71
2023/07/06 12:59:04;;;;;;;3.63;1.70;;;25.50;1.00;;;;;;7384786;19;20045;-71
2023/07/06 13:01:36;;;;;;;3.35;2.03;;;25.30;1.00;;;;;;7381912;19;20014;-69
2023/07/06 13:04:12;;;;;;;3.63;1.77;;;24.60;1.00;;;;;;7386531;19;20038;-70
2023/07/06 13:06:46;;;;;;;8.00;2.08;;;24.60;1.00;;;;;;7381232;19;20021;-70
2023/07/06 13:09:19;;;;;;;6.20;2.10;;;24.50;1.00;;;;;;7392212;19;20354;-70
2023/07/06 13:11:52;;;;;;;3.37;1.83;;;24.70;1.00;;;;;;7388608;19;20014;-70
2023/07/06 13:14:23;;;;;;;2.67;1.88;;;25.00;1.00;;;;;;7389041;19;20051;-70
2023/07/06 13:16:56;;;;;;;2.95;1.98;;;25.10;1.00;;;;;;7390104;19;20090;-71
2023/07/06 13:19:29;;;;;;;2.97;1.77;;;24.50;1.00;;;;;;7393896;19;20021;-70
2023/07/06 13:21:59;;;;;;;3.05;1.90;;;24.40;1.00;;;;;;7389826;19;20138;-70
2023/07/06 13:24:30;;;;;;;4.60;2.13;;;24.70;1.00;;;;;;7390493;19;20112;-70
2023/07/06 13:27:01;;;;;;;4.25;1.80;;;24.80;1.00;;;;;;7392972;19;20074;-70
2023/07/06 13:29:34;;;;;;;5.20;1.80;;;24.70;1.00;;;;;;7393351;19;20014;-70
2023/07/06 13:32:05;;;;;;;3.40;1.77;;;24.60;1.00;;;;;;7392107;19;20251;-69